Capitol, MT

2:16 PM MDT on October 31, 2014 (GMT -0600)
Hulett | Change Station
CLOSE
Current Station
Airport
Location: Hulett,
Elevation: 4265 ft
Nearby Weather Stations

Elev 4265 ft 44.66 °N, 104.57 °W | Updated 21 minutes ago

Clear
Clear
59 °F
Feels Like 59 °F
N
16
Wind Variable Wind from South
Gusts 24 mph

Today
High -- | Low -- °F
--% Chance of Precip.
Yesterday
High -- | Low -- °F
Precip. -- in
7:34 AM 5:45 PM
First Quarter, 58% visible
Pressure 30.00 in
Visibility 10.0 miles
Clouds Clear
Dew Point 30 °F
Humidity 34%
Rainfall 0.00 in
Snow Depth Not available.
UV 3 out of 12
Pollen .50 out of 12
Air Quality Not available.
Flu Activity Not available.
METAR KW43 311955Z AUTO 19014G21KT 10SM CLR 15/M01 A3000 RMK AO2

More Conditions Fewer Conditions

Pressure 30.00 in
Visibility 10.0 miles
Clouds Clear
Dew Point 30 °F
Humidity 34%
Rainfall 0.00 in
Snow Depth Not available.
UV 3 out of 12
Pollen .50 out of 12
Air Quality Not available.
Flu Activity Not available.
METAR KW43 311955Z AUTO 19014G21KT 10SM CLR 15/M01 A3000 RMK AO2

More Conditions Fewer Conditions

10-Day Weather Forecast

Almanac

Astronomy

Oct. 31, 2014 Rise Set
Actual Time
Civil Twilight
Nautical Twilight
Astronomical Twilight
Moon
Length of Visible Light
Length of Day
Tomorrow will be .
, % of the Moon is Illuminated

Today's Extremes

State Highs State Lows

Community

WunderPhotos

Upload Photos

1,766,717 photos uploaded!

WunderBlogs® & News

Nearby

Air Quality

  Air Quality AQ Index Pollutant
Not available.

Snow Depth

Station Depth Elevation

Earthquake Activity

City Distance Mag. Time & Date
Minimum magnitude displayed is 2.5.

Coastal Water Temperatures

Place Temperature

Nearby Weather Stations